^^
Datos históricos de la estación: Murcia-Puente Tocinos
Diario Informe para Septiembre 26, 2019 Unidades:  Métrico    Ingés   Ambas
Diario Semanal Mensual Anual
  Máxima: Mínima: Promedio:
Temperatura: 24 °C 11.8 °C 17.9 °C
Punto de rocio: 9.6 °C 3.7 °C 6.5 °C
Humedad: 69.4% 28% 49%
Velocidad viento: 16.4km/h 0km/h 7.8km/h
Racha viento: 30.6km/h - -
Viento- - SSO
Presión: 1023.9 hPa 1017.0 hPa -
Precipitación: 0.0 mm    
 
 
Tabla de datos para Septiembre 26, 2019
Hora Temperatura Punto de rocio Presión Viento Velocidad viento Racha viento Humedad Intensidad lluvia(por hora) Nubes
00:04 16.6 °C 7 °C 1017.0 hPa Oeste 8.7 km/h 12.9 km/h 53% 0.0 mm
00:09 16.6 °C 7 °C 1017.0 hPa Oeste 8.4 km/h 14.8 km/h 53.2% 0.0 mm
00:14 16.4 °C 7.1 °C 1017.0 hPa ONO 7.6 km/h 15.6 km/h 54% 0.0 mm
00:19 16.3 °C 7.1 °C 1017.4 hPa ONO 8 km/h 16.1 km/h 54.4% 0.0 mm
00:24 16.2 °C 7.2 °C 1017.4 hPa ONO 8.7 km/h 14.8 km/h 55.3% 0.0 mm
00:29 16 °C 7.3 °C 1017.4 hPa ONO 9 km/h 14.8 km/h 56% 0.0 mm
00:34 15.9 °C 7.1 °C 1017.6 hPa ONO 9.5 km/h 16.1 km/h 56% 0.0 mm
00:39 16 °C 7.1 °C 1017.6 hPa Oeste 9.2 km/h 20.9 km/h 55.6% 0.0 mm
00:44 16.2 °C 7.1 °C 1017.6 hPa Oeste 8.7 km/h 20.9 km/h 55% 0.0 mm
00:49 16.2 °C 7.2 °C 1017.7 hPa Oeste 9 km/h 20.9 km/h 55% 0.0 mm
00:54 16.2 °C 7.2 °C 1017.7 hPa ONO 9.5 km/h 23.7 km/h 55% 0.0 mm
00:59 16.2 °C 7.2 °C 1017.7 hPa ONO 10.7 km/h 24.1 km/h 55% 0.0 mm
01:04 16.2 °C 7.2 °C 1017.9 hPa ONO 12.2 km/h 24.1 km/h 55% 0.0 mm
01:09 16.1 °C 7.1 °C 1017.9 hPa ONO 12.5 km/h 24.5 km/h 55.4% 0.0 mm
01:14 16 °C 7.2 °C 1017.9 hPa ONO 13 km/h 24.1 km/h 56% 0.0 mm
01:19 16 °C 7.2 °C 1018.0 hPa ONO 13.4 km/h 25.9 km/h 56% 0.0 mm
01:24 15.9 °C 7.1 °C 1018.0 hPa ONO 14 km/h 25.7 km/h 56% 0.0 mm
01:29 15.8 °C 7.2 °C 1018.0 hPa ONO 13.3 km/h 20.9 km/h 56.5% 0.0 mm
01:34 15.8 °C 7.3 °C 1018.2 hPa ONO 11.9 km/h 19.3 km/h 57% 0.0 mm
01:39 15.7 °C 7.2 °C 1018.2 hPa ONO 11.2 km/h 14.5 km/h 57% 0.0 mm
01:44 15.7 °C 7.2 °C 1018.2 hPa Oeste 10 km/h 12.9 km/h 57% 0.0 mm
01:49 15.7 °C 7.2 °C 1018.4 hPa OSO 8.9 km/h 13 km/h 57% 0.0 mm
01:54 15.7 °C 7.2 °C 1018.4 hPa OSO 6.9 km/h 13 km/h 57% 0.0 mm
01:59 15.7 °C 7.2 °C 1018.4 hPa SO 7.2 km/h 14 km/h 57% 0.0 mm
02:04 15.8 °C 7.2 °C 1018.4 hPa SO 7.6 km/h 14.8 km/h 56.6% 0.0 mm
02:09 15.8 °C 7.2 °C 1018.4 hPa OSO 8 km/h 14.8 km/h 56.5% 0.0 mm
02:14 15.8 °C 7.2 °C 1018.4 hPa OSO 8.7 km/h 14.5 km/h 57% 0.0 mm
02:19 15.7 °C 7.2 °C 1018.5 hPa Oeste 8.7 km/h 14.8 km/h 57% 0.0 mm
02:24 15.6 °C 7.2 °C 1018.5 hPa Oeste 8.7 km/h 17.2 km/h 57.3% 0.0 mm
02:29 15.4 °C 7.2 °C 1018.5 hPa ONO 9.2 km/h 17.7 km/h 58% 0.0 mm
02:34 15.4 °C 7.2 °C 1018.6 hPa ONO 10 km/h 19 km/h 58% 0.0 mm
02:39 15.3 °C 7.2 °C 1018.6 hPa Oeste 9.8 km/h 19.3 km/h 58.4% 0.0 mm
02:44 15.3 °C 7.3 °C 1018.6 hPa Oeste 9.5 km/h 12.9 km/h 59% 0.0 mm
02:49 15.2 °C 7.2 °C 1018.7 hPa OSO 8.4 km/h 11.3 km/h 59% 0.0 mm
02:54 15.2 °C 7.3 °C 1018.7 hPa SO 6.5 km/h 9.7 km/h 59.4% 0.0 mm
02:59 15.1 °C 7.4 °C 1018.7 hPa OSO 6.2 km/h 11.1 km/h 60% 0.0 mm
03:04 15.1 °C 7.4 °C 1018.7 hPa Oeste 5.8 km/h 11.3 km/h 60% 0.0 mm
03:09 15 °C 7.3 °C 1018.7 hPa OSO 5.5 km/h 11.3 km/h 60% 0.0 mm
03:14 14.9 °C 7.2 °C 1018.7 hPa Oeste 5 km/h 8.7 km/h 60% 0.0 mm
03:19 14.9 °C 7.2 °C 1018.7 hPa Oeste 4.9 km/h 9.7 km/h 59.9% 0.0 mm
03:24 14.9 °C 7 °C 1018.7 hPa Oeste 4.7 km/h 9.7 km/h 59.2% 0.0 mm
03:29 14.9 °C 6.9 °C 1018.7 hPa Oeste 4 km/h 7.4 km/h 59% 0.0 mm
03:34 14.9 °C 7 °C 1018.8 hPa Oeste 2.9 km/h 8 km/h 59% 0.0 mm
03:39 15 °C 7 °C 1018.8 hPa SSO 3.3 km/h 9.3 km/h 59% 0.0 mm
03:44 15.1 °C 6.9 °C 1018.8 hPa SSO 3.9 km/h 11.1 km/h 58.4% 0.0 mm
03:49 15.2 °C 7 °C 1018.8 hPa SO 4.8 km/h 11.3 km/h 58% 0.0 mm
03:54 15.3 °C 7 °C 1018.7 hPa SO 6.5 km/h 14.8 km/h 57.6% 0.0 mm
03:59 15.3 °C 6.8 °C 1018.7 hPa SO 7 km/h 14.8 km/h 57% 0.0 mm
04:04 15.3 °C 6.9 °C 1018.8 hPa SSO 7.6 km/h 12.9 km/h 57.4% 0.0 mm
04:09 15.2 °C 6.7 °C 1018.8 hPa SSO 6.6 km/h 8 km/h 57% 0.0 mm
04:14 15.2 °C 6.8 °C 1018.8 hPa SSO 4.7 km/h 8 km/h 57.3% 0.0 mm
04:19 15.2 °C 7.1 °C 1018.8 hPa SO 4.4 km/h 9.5 km/h 58.3% 0.0 mm
04:24 15 °C 7.2 °C 1018.8 hPa Sur 3.9 km/h 9.7 km/h 59.7% 0.0 mm
04:29 14.7 °C 7.2 °C 1018.8 hPa Sur 4.1 km/h 9.7 km/h 60.8% 0.0 mm
04:34 14.6 °C 7.3 °C 1018.9 hPa Sur 4.7 km/h 8 km/h 61.7% 0.0 mm
04:39 14.4 °C 7.2 °C 1018.9 hPa ONO 4.1 km/h 6.4 km/h 62% 0.0 mm
04:44 14.3 °C 7.2 °C 1018.9 hPa Oeste 3.2 km/h 6.4 km/h 62.2% 0.0 mm
04:49 14.3 °C 7.3 °C 1018.9 hPa Oeste 3.2 km/h 8 km/h 63% 0.0 mm
04:54 14.2 °C 7.3 °C 1018.9 hPa Oeste 3.2 km/h 8 km/h 63% 0.0 mm
04:59 14.2 °C 7.3 °C 1018.9 hPa OSO 3.5 km/h 8 km/h 63% 0.0 mm
05:04 14.2 °C 7.2 °C 1019.0 hPa OSO 3.9 km/h 8 km/h 63% 0.0 mm
05:09 14.1 °C 7.2 °C 1019.0 hPa SO 3.6 km/h 7.6 km/h 63% 0.0 mm
05:14 14 °C 7.2 °C 1019.0 hPa OSO 3.2 km/h 8 km/h 63.4% 0.0 mm
05:19 13.9 °C 6.9 °C 1019.0 hPa SO 3.8 km/h 10 km/h 63% 0.0 mm
05:24 13.8 °C 6.8 °C 1019.0 hPa SO 5 km/h 9.7 km/h 62.7% 0.0 mm
05:29 13.9 °C 6.8 °C 1019.0 hPa Oeste 5.5 km/h 9.7 km/h 62.4% 0.0 mm
05:34 13.7 °C 6.9 °C 1019.1 hPa OSO 6.5 km/h 9.3 km/h 63.3% 0.0 mm
05:39 13.6 °C 7 °C 1019.1 hPa Oeste 5.8 km/h 9.7 km/h 64.5% 0.0 mm
05:44 13.4 °C 7 °C 1019.1 hPa Oeste 4.7 km/h 8 km/h 65.4% 0.0 mm
05:49 13.3 °C 7 °C 1019.3 hPa Oeste 3.8 km/h 6.4 km/h 66% 0.0 mm
05:54 13.2 °C 7 °C 1019.3 hPa Oeste 2.2 km/h 8.4 km/h 66.4% 0.0 mm
05:59 13 °C 7.1 °C 1019.3 hPa Este 2.2 km/h 8 km/h 67.6% 0.0 mm
06:04 12.8 °C 7.2 °C 1019.5 hPa Este 2.2 km/h 8 km/h 68.4% 0.0 mm
06:09 12.8 °C 7.2 °C 1019.5 hPa SSE 2.2 km/h 8 km/h 68.8% 0.0 mm
06:14 12.8 °C 7.2 °C 1019.5 hPa SO 2.2 km/h 8 km/h 68.8% 0.0 mm
06:19 12.8 °C 7 °C 1019.7 hPa SO 2.2 km/h 6.4 km/h 67.7% 0.0 mm
06:24 12.8 °C 7.2 °C 1019.7 hPa SSO 2.2 km/h 5.6 km/h 68.6% 0.0 mm
06:29 12.8 °C 7.3 °C 1019.7 hPa Este 2.5 km/h 5.8 km/h 69% 0.0 mm
06:34 12.7 °C 7.2 °C 1020.0 hPa Este 2.9 km/h 6.4 km/h 69% 0.0 mm
06:39 12.7 °C 7.2 °C 1020.0 hPa Este 1.9 km/h 5.8 km/h 69% 0.0 mm
06:44 12.7 °C 7.1 °C 1020.0 hPa Calm   8 km/h 68.9% 0.0 mm
06:49 12.7 °C 7 °C 1020.1 hPa SE 1.4 km/h 8 km/h 68.5% 0.0 mm
06:54 12.6 °C 6.8 °C 1020.1 hPa SSE 3.9 km/h 10 km/h 67.6% 0.0 mm
06:59 12.6 °C 6.6 °C 1020.1 hPa Sur 4.4 km/h 9.7 km/h 67% 0.0 mm
07:04 12.6 °C 6.6 °C 1020.4 hPa Sur 5 km/h 8 km/h 67% 0.0 mm
07:09 12.6 °C 6.8 °C 1020.4 hPa Sur 3.1 km/h 6.4 km/h 67.9% 0.0 mm
07:14 12.4 °C 6.7 °C 1020.4 hPa Calm   11.9 km/h 68% 0.0 mm
07:19 12 °C 6.5 °C 1020.7 hPa SE 2.1 km/h 11.3 km/h 68.9% 0.0 mm
07:24 11.8 °C 6.4 °C 1020.7 hPa SSE 5.8 km/h 11.3 km/h 69.4% 0.0 mm
07:29 11.9 °C 6.2 °C 1020.7 hPa Sur 6.2 km/h 13 km/h 67.9% 0.0 mm
07:34 12.3 °C 6.1 °C 1021.0 hPa Sur 6.9 km/h 13 km/h 65.8% 0.0 mm
07:39 12.6 °C 6 °C 1021.0 hPa SSO 7.5 km/h 11.3 km/h 64.3% 0.0 mm
07:44 12.7 °C 5.9 °C 1021.0 hPa SSO 8.4 km/h 11.3 km/h 63.4% 0.0 mm
07:49 12.9 °C 6 °C 1021.2 hPa SSO 7.1 km/h 9.7 km/h 63% 0.0 mm
07:54 13.1 °C 6.3 °C 1021.2 hPa Oeste 4.7 km/h 7.4 km/h 63.6% 0.0 mm
07:59 13.3 °C 6.4 °C 1021.2 hPa NNE 3.6 km/h 8 km/h 63% 0.0 mm
08:04 13.4 °C 6.5 °C 1021.5 hPa Este 2.2 km/h 9.3 km/h 63% 0.0 mm
08:09 13.2 °C 6.4 °C 1021.5 hPa ESE 3.2 km/h 10 km/h 63.6% 0.0 mm
08:14 12.9 °C 6.5 °C 1021.5 hPa SE 5 km/h 9.7 km/h 65% 0.0 mm
08:19 12.8 °C 6.3 °C 1021.8 hPa SE 5.7 km/h 11.1 km/h 64.4% 0.0 mm
08:24 13 °C 6.5 °C 1021.8 hPa SE 6.9 km/h 11.3 km/h 64.5% 0.0 mm
08:29 13.2 °C 6.5 °C 1021.8 hPa Sur 6.2 km/h 8 km/h 63.7% 0.0 mm
08:34 13.5 °C 6.3 °C 1021.9 hPa Sur 5 km/h 8 km/h 62% 0.0 mm
08:39 13.7 °C 6.2 °C 1021.9 hPa SSO 5 km/h 9.3 km/h 60.6% 0.0 mm
08:44 13.9 °C 6.3 °C 1021.9 hPa SSO 5 km/h 9.7 km/h 60.3% 0.0 mm
08:49 14.1 °C 6.4 °C 1021.9 hPa SSO 4.3 km/h 6.4 km/h 60.1% 0.0 mm
08:54 14.4 °C 6.4 °C 1021.9 hPa SSE 2.9 km/h 5.8 km/h 58.6% 0.0 mm
08:59 15 °C 6.1 °C 1021.9 hPa SE 2.9 km/h 7.4 km/h 55.4% 0.0 mm
09:04 15.2 °C 6.8 °C 1022.2 hPa SE 2.9 km/h 8.4 km/h 57.5% 0.0 mm
09:09 15.1 °C 6.7 °C 1022.2 hPa ESE 3.6 km/h 8 km/h 57.4% 0.0 mm
09:14 15.1 °C 6.5 °C 1022.2 hPa ESE 5 km/h 8 km/h 56.8% 0.0 mm
09:19 15.3 °C 6.5 °C 1022.3 hPa ESE 4 km/h 6.4 km/h 56% 0.0 mm
09:24 15.5 °C 6.2 °C 1022.3 hPa SSE 2.2 km/h 9.3 km/h 54% 0.0 mm
09:29 15.5 °C 5.9 °C 1022.3 hPa OSO 2.8 km/h 9.7 km/h 52.9% 0.0 mm
09:34 15.5 °C 6 °C 1022.5 hPa OSO 3.9 km/h 9.7 km/h 53% 0.0 mm
09:39 15.7 °C 5.8 °C 1022.5 hPa SO 4.1 km/h 11.1 km/h 52% 0.0 mm
09:44 15.7 °C 5.8 °C 1022.5 hPa Oeste 4.7 km/h 11.3 km/h 51.8% 0.0 mm
09:49 15.8 °C 5.9 °C 1022.5 hPa NO 5 km/h 13 km/h 51.7% 0.0 mm
09:54 15.8 °C 5.8 °C 1022.5 hPa Oeste 5.8 km/h 20.4 km/h 51.5% 0.0 mm
09:59 15.9 °C 5.6 °C 1022.5 hPa OSO 7.5 km/h 20.9 km/h 50.3% 0.0 mm
10:04 16 °C 5.6 °C 1022.6 hPa Oeste 9.5 km/h 20.9 km/h 50.3% 0.0 mm
10:09 16.1 °C 5.7 °C 1022.6 hPa OSO 8.4 km/h 17.2 km/h 50% 0.0 mm
10:14 16.2 °C 5.6 °C 1022.6 hPa SO 6.5 km/h 19 km/h 49.4% 0.0 mm
10:19 16.3 °C 5.5 °C 1022.7 hPa SO 6.6 km/h 19.3 km/h 48.8% 0.0 mm
10:24 16.4 °C 5.5 °C 1022.7 hPa Oeste 6.9 km/h 13.7 km/h 48.6% 0.0 mm
10:29 16.6 °C 5.5 °C 1022.7 hPa Oeste 7.2 km/h 18.5 km/h 47.8% 0.0 mm
10:34 16.6 °C 5.2 °C 1022.7 hPa Oeste 7.6 km/h 20.4 km/h 46.8% 0.0 mm
10:39 16.8 °C 5.1 °C 1022.6 hPa Oeste 8.6 km/h 20.9 km/h 46.1% 0.0 mm
10:44 16.8 °C 5.1 °C 1022.6 hPa Oeste 10.3 km/h 20.9 km/h 45.7% 0.0 mm
10:49 16.9 °C 4.9 °C 1022.6 hPa Oeste 10.6 km/h 20.9 km/h 45% 0.0 mm
10:54 17.1 °C 5 °C 1022.5 hPa OSO 11.1 km/h 20.9 km/h 44.7% 0.0 mm
10:59 17.4 °C 4.9 °C 1022.5 hPa Oeste 10.6 km/h 22.2 km/h 43.7% 0.0 mm
11:04 17.5 °C 4.6 °C 1022.5 hPa Oeste 10 km/h 24.5 km/h 42.5% 0.0 mm
11:09 17.5 °C 4.6 °C 1022.5 hPa OSO 11.1 km/h 24.1 km/h 42.3% 0.0 mm
11:14 17.7 °C 4.9 °C 1022.5 hPa Oeste 13 km/h 25.6 km/h 42.8% 0.0 mm
11:19 17.9 °C 4.7 °C 1022.6 hPa Oeste 12.7 km/h 25.7 km/h 41.8% 0.0 mm
11:24 18 °C 4.5 °C 1022.6 hPa OSO 12.2 km/h 24.1 km/h 41% 0.0 mm
11:29 18.2 °C 4.8 °C 1022.6 hPa ONO 12.8 km/h 24.1 km/h 41.5% 0.0 mm
11:34 18.2 °C 4.5 °C 1022.6 hPa Oeste 13.7 km/h 22.5 km/h 40.4% 0.0 mm
11:39 18.2 °C 4.7 °C 1022.5 hPa ONO 13.5 km/h 22.5 km/h 40.8% 0.0 mm
11:44 18.3 °C 4.2 °C 1022.5 hPa ONO 13 km/h 21.7 km/h 39.4% 0.0 mm
11:49 18.3 °C 4.6 °C 1022.6 hPa Oeste 12.8 km/h 22.2 km/h 40.5% 0.0 mm
11:54 18.4 °C 4.6 °C 1022.6 hPa Oeste 12.2 km/h 22.5 km/h 40.1% 0.0 mm
11:59 18.6 °C 4.8 °C 1022.6 hPa ONO 11.4 km/h 18.5 km/h 40.1% 0.0 mm
12:04 18.8 °C 4.9 °C 1022.6 hPa ONO 10.3 km/h 19.3 km/h 39.9% 0.0 mm
12:09 19 °C 5.1 °C 1022.4 hPa NO 10.2 km/h 16.7 km/h 39.9% 0.0 mm
12:14 19.2 °C 4.9 °C 1022.4 hPa NO 10 km/h 16.1 km/h 39.2% 0.0 mm
12:19 19.2 °C 4.9 °C 1022.4 hPa NNO 9.2 km/h 20.9 km/h 39% 0.0 mm
12:24 19.2 °C 4.8 °C 1022.4 hPa ONO 7.6 km/h 20.9 km/h 38.7% 0.0 mm
12:29 19.1 °C 4.8 °C 1022.4 hPa ONO 8.8 km/h 24.5 km/h 38.9% 0.0 mm
12:34 19.2 °C 4.9 °C 1022.4 hPa NO 11.1 km/h 24.1 km/h 39% 0.0 mm
12:39 19.3 °C 4.9 °C 1022.2 hPa Oeste 10.2 km/h 20.9 km/h 38.7% 0.0 mm
12:44 19.3 °C 4.8 °C 1022.2 hPa ONO 8.4 km/h 14.8 km/h 38.5% 0.0 mm
12:49 19.4 °C 4.7 °C 1022.2 hPa ONO 8.1 km/h 18 km/h 38% 0.0 mm
12:54 19.4 °C 4.9 °C 1022.0 hPa ONO 7.6 km/h 17.7 km/h 38.4% 0.0 mm
12:59 19.6 °C 5 °C 1022.0 hPa OSO 7.3 km/h 18.5 km/h 38.3% 0.0 mm
13:04 19.7 °C 5.2 °C 1022.0 hPa NNO 6.9 km/h 19.3 km/h 38.6% 0.0 mm
13:09 19.8 °C 5.3 °C 1022.0 hPa NNO 6.9 km/h 16.4 km/h 38.5% 0.0 mm
13:14 20 °C 4.7 °C 1022.0 hPa OSO 6.9 km/h 20.9 km/h 36.5% 0.0 mm
13:19 19.9 °C 4.4 °C 1022.0 hPa OSO 7.6 km/h 20.9 km/h 36% 0.0 mm
13:24 20.1 °C 4.8 °C 1021.9 hPa Oeste 8.7 km/h 20.4 km/h 36.6% 0.0 mm
13:29 20.2 °C 5 °C 1021.9 hPa Oeste 9.8 km/h 24.5 km/h 36.8% 0.0 mm
13:34 20.2 °C 4.7 °C 1021.9 hPa Oeste 11.9 km/h 24.1 km/h 36.3% 0.0 mm
13:39 20.3 °C 4.9 °C 1021.6 hPa ONO 10.4 km/h 14.5 km/h 36.5% 0.0 mm
13:44 20.4 °C 5.1 °C 1021.6 hPa ONO 7.6 km/h 19 km/h 36.8% 0.0 mm
13:49 20.5 °C 5.1 °C 1021.6 hPa NO 7.8 km/h 19.3 km/h 36.4% 0.0 mm
13:54 20.7 °C 4.7 °C 1021.4 hPa Oeste 8.4 km/h 17.7 km/h 35.2% 0.0 mm
13:59 20.7 °C 4.7 °C 1021.4 hPa Oeste 8 km/h 22.2 km/h 35% 0.0 mm
14:04 20.6 °C 4.6 °C 1021.4 hPa SSE 7.6 km/h 22.5 km/h 35% 0.0 mm
14:09 20.7 °C 4.6 °C 1021.3 hPa SE 7.3 km/h 17.7 km/h 34.7% 0.0 mm
14:14 20.9 °C 4.4 °C 1021.3 hPa SSO 6.9 km/h 14.5 km/h 34% 0.0 mm
14:19 21.1 °C 4.4 °C 1021.3 hPa SSO 6.9 km/h 20.4 km/h 33.4% 0.0 mm
14:24 21.2 °C 4.4 °C 1021.2 hPa OSO 6.9 km/h 20.9 km/h 33.3% 0.0 mm
14:29 21.4 °C 4.5 °C 1021.2 hPa Oeste 6.9 km/h 16.7 km/h 33% 0.0 mm
14:34 21.4 °C 4.5 °C 1021.2 hPa ONO 6.9 km/h 22 km/h 33% 0.0 mm
14:39 21.3 °C 4.4 °C 1021.0 hPa ONO 8.8 km/h 22.5 km/h 32.9% 0.0 mm
14:44 21.3 °C 4.1 °C 1021.0 hPa OSO 12.2 km/h 22.5 km/h 32.5% 0.0 mm
14:49 21.3 °C 4.2 °C 1021.0 hPa OSO 11 km/h 19 km/h 32.5% 0.0 mm
14:54 21.5 °C 4.1 °C 1021.0 hPa OSO 8.7 km/h 19.3 km/h 32% 0.0 mm
14:59 21.6 °C 4 °C 1021.0 hPa OSO 8.6 km/h 16.1 km/h 31.6% 0.0 mm
15:04 21.6 °C 4.1 °C 1021.0 hPa SO 8.4 km/h 15.6 km/h 31.8% 0.0 mm
15:09 21.7 °C 3.9 °C 1021.0 hPa SO 8.4 km/h 20.4 km/h 31.2% 0.0 mm
15:14 21.7 °C 3.8 °C 1021.0 hPa ESE 8.4 km/h 20.9 km/h 31% 0.0 mm
15:19 21.9 °C 4 °C 1021.0 hPa OSO 7.7 km/h 15.6 km/h 31% 0.0 mm
15:24 22 °C 4 °C 1020.9 hPa Sur 6.5 km/h 16.1 km/h 30.7% 0.0 mm
15:29 22.2 °C 4.1 °C 1020.9 hPa Oeste 5.9 km/h 14.5 km/h 30.7% 0.0 mm
15:34 22.5 °C 4.1 °C 1020.9 hPa Sur 5 km/h 16.1 km/h 30% 0.0 mm
15:39 22.5 °C 4.1 °C 1020.7 hPa Este 5.6 km/h 16.7 km/h 30.1% 0.0 mm
15:44 22.4 °C 4.2 °C 1020.7 hPa NE 6.9 km/h 18 km/h 30.5% 0.0 mm
15:49 22.4 °C 4.1 °C 1020.7 hPa NE 6.9 km/h 19.3 km/h 30.3% 0.0 mm
15:54 22.3 °C 4 °C 1020.5 hPa Este 6.9 km/h 19.3 km/h 30.3% 0.0 mm
15:59 22.3 °C 4.2 °C 1020.5 hPa Este 7.7 km/h 19.3 km/h 30.7% 0.0 mm
16:04 22.4 °C 4 °C 1020.5 hPa NE 8.7 km/h 14.8 km/h 30.1% 0.0 mm
16:09 22.3 °C 4 °C 1020.4 hPa NE 8.6 km/h 14.8 km/h 30.2% 0.0 mm
16:14 22.5 °C 4.3 °C 1020.4 hPa NE 8.4 km/h 14.5 km/h 30.6% 0.0 mm
16:19 22.7 °C 4.3 °C 1020.4 hPa NNE 7.9 km/h 16.1 km/h 30.1% 0.0 mm
16:24 22.8 °C 3.9 °C 1020.2 hPa ENE 6.9 km/h 16.1 km/h 29.3% 0.0 mm
16:29 22.6 °C 3.7 °C 1020.2 hPa ENE 7.5 km/h 16.1 km/h 29.1% 0.0 mm
16:34 22.5 °C 4 °C 1020.2 hPa Este 8.4 km/h 19 km/h 29.8% 0.0 mm
16:39 22.7 °C 4.3 °C 1020.0 hPa NE 8.5 km/h 19.3 km/h 30.2% 0.0 mm
16:44 22.8 °C 4.2 °C 1020.0 hPa NE 8.7 km/h 27.8 km/h 29.8% 0.0 mm
16:49 22.8 °C 4.1 °C 1020.0 hPa NE 9.2 km/h 27.4 km/h 29.5% 0.0 mm
16:54 22.7 °C 3.9 °C 1019.9 hPa NE 10.3 km/h 24.1 km/h 29.3% 0.0 mm
16:59 22.8 °C 4.1 °C 1019.9 hPa SSE 7.9 km/h 11.3 km/h 29.5% 0.0 mm
17:04 23.2 °C 4.3 °C 1019.9 hPa North 5 km/h 11.3 km/h 29.3% 0.0 mm
17:09 23.4 °C 4.4 °C 1019.8 hPa SO 5 km/h 11.1 km/h 29% 0.0 mm
17:14 23.6 °C 4.2 °C 1019.8 hPa Sur 5 km/h 11.3 km/h 28.4% 0.0 mm
17:19 23.7 °C 4.1 °C 1019.8 hPa SE 5 km/h 11.3 km/h 28% 0.0 mm
17:24 23.7 °C 4.5 °C 1019.8 hPa SSE 5 km/h 12.2 km/h 28.8% 0.0 mm
17:29 24 °C 4.7 °C 1019.8 hPa NO 5.5 km/h 14.8 km/h 28.6% 0.0 mm
17:34 24 °C 4.4 °C 1019.8 hPa NNO 6.5 km/h 14.5 km/h 28.1% 0.0 mm
17:39 23.7 °C 5.7 °C 1019.6 hPa North 7.1 km/h 18.5 km/h 31.4% 0.0 mm
17:44 23.5 °C 5.6 °C 1019.6 hPa SSO 8.4 km/h 19.3 km/h 31.4% 0.0 mm
17:49 23.6 °C 6.4 °C 1019.6 hPa ESE 7.9 km/h 22.5 km/h 33.2% 0.0 mm
17:54 23.2 °C 7.4 °C 1019.5 hPa ESE 6.9 km/h 24.5 km/h 36.3% 0.0 mm
17:59 22.9 °C 7.4 °C 1019.5 hPa ESE 10.1 km/h 24.1 km/h 37% 0.0 mm
18:04 22.8 °C 7.6 °C 1019.5 hPa SE 14 km/h 22.2 km/h 37.6% 0.0 mm
18:09 22.7 °C 7.5 °C 1019.5 hPa SE 13.4 km/h 22.5 km/h 37.5% 0.0 mm
18:14 22.7 °C 7.2 °C 1019.5 hPa SE 12.2 km/h 22.5 km/h 36.7% 0.0 mm
18:19 22.8 °C 7.3 °C 1019.5 hPa SSE 11.8 km/h 23.3 km/h 37% 0.0 mm
18:24 22.8 °C 7.3 °C 1019.5 hPa SSE 11.1 km/h 24.1 km/h 36.9% 0.0 mm
18:29 22.6 °C 7.2 °C 1019.5 hPa SSE 12.4 km/h 29.6 km/h 37% 0.0 mm
18:34 22.6 °C 7.3 °C 1019.7 hPa SSE 14.8 km/h 29 km/h 37.4% 0.0 mm
18:39 22.7 °C 7.3 °C 1019.7 hPa Sur 14.4 km/h 24.1 km/h 37% 0.0 mm
18:44 22.5 °C 7.1 °C 1019.7 hPa SSE 13.7 km/h 27.8 km/h 36.9% 0.0 mm
18:49 22.3 °C 7.4 °C 1019.8 hPa Sur 14.6 km/h 27.8 km/h 38.3% 0.0 mm
18:54 22.3 °C 7.3 °C 1019.8 hPa Sur 16.4 km/h 28.6 km/h 38% 0.0 mm
18:59 22.4 °C 7.4 °C 1019.8 hPa Sur 16.3 km/h 29 km/h 38% 0.0 mm
19:04 22.3 °C 7.4 °C 1020.0 hPa SSE 16.1 km/h 27.4 km/h 38.3% 0.0 mm
19:09 22.3 °C 7.4 °C 1020.0 hPa SSE 15.4 km/h 24.5 km/h 38.3% 0.0 mm
19:14 22.1 °C 7.8 °C 1020.0 hPa SE 14 km/h 27.8 km/h 39.6% 0.0 mm
19:19 22.1 °C 7.7 °C 1020.2 hPa SE 14.6 km/h 27.4 km/h 39.6% 0.0 mm
19:24 21.8 °C 7.7 °C 1020.2 hPa SE 15.6 km/h 29.8 km/h 40.3% 0.0 mm
19:29 21.6 °C 7.6 °C 1020.2 hPa SSE 15.9 km/h 30.6 km/h 40.6% 0.0 mm
19:34 21.5 °C 7.7 °C 1020.4 hPa SE 16.4 km/h 27.4 km/h 41% 0.0 mm
19:39 21.5 °C 7.9 °C 1020.4 hPa SSE 15.4 km/h 25.7 km/h 41.6% 0.0 mm
19:44 21.4 °C 7.9 °C 1020.4 hPa SSE 13.7 km/h 22.5 km/h 41.9% 0.0 mm
19:49 21.4 °C 7.9 °C 1020.5 hPa SSE 13.5 km/h 22.5 km/h 41.8% 0.0 mm
19:54 21.3 °C 7.9 °C 1020.5 hPa Sur 13 km/h 20.9 km/h 42% 0.0 mm
19:59 21.3 °C 7.9 °C 1020.5 hPa SSE 12.2 km/h 17.2 km/h 42% 0.0 mm
20:04 21.3 °C 7.9 °C 1020.7 hPa SE 11.1 km/h 17.7 km/h 42% 0.0 mm
20:09 21.4 °C 7.9 °C 1020.7 hPa Sur 10.2 km/h 16.7 km/h 42% 0.0 mm
20:14 21.2 °C 7.8 °C 1020.7 hPa SSE 8.4 km/h 16.7 km/h 42% 0.0 mm
20:19 21.1 °C 7.7 °C 1020.8 hPa Sur 9 km/h 16.1 km/h 42% 0.0 mm
20:24 20.9 °C 7.6 °C 1020.8 hPa SSE 10.3 km/h 14 km/h 42.1% 0.0 mm
20:29 20.9 °C 7.7 °C 1020.8 hPa SSE 10 km/h 14.8 km/h 42.7% 0.0 mm
20:34 20.8 °C 7.7 °C 1020.9 hPa Sur 9.5 km/h 16.4 km/h 43% 0.0 mm
20:39 20.7 °C 7.8 °C 1020.9 hPa Sur 9.8 km/h 16.7 km/h 43.5% 0.0 mm
20:44 20.6 °C 7.9 °C 1020.9 hPa SSE 10.3 km/h 16.1 km/h 44% 0.0 mm
20:49 20.4 °C 7.9 °C 1021.2 hPa Sur 9.8 km/h 12.9 km/h 44.3% 0.0 mm
20:54 20.4 °C 8 °C 1021.2 hPa Sur 8.7 km/h 13 km/h 45% 0.0 mm
20:59 20.3 °C 8.1 °C 1021.2 hPa Sur 8.6 km/h 12.9 km/h 45.6% 0.0 mm
21:04 20.2 °C 8.2 °C 1021.3 hPa SSO 8.4 km/h 13.7 km/h 46% 0.0 mm
21:09 20.2 °C 8.4 °C 1021.3 hPa SSO 8.4 km/h 14.5 km/h 46.6% 0.0 mm
21:14 20.1 °C 8.4 °C 1021.3 hPa SSO 8.4 km/h 12.9 km/h 46.8% 0.0 mm
21:19 20.1 °C 8.4 °C 1021.5 hPa Sur 7.9 km/h 11.3 km/h 47% 0.0 mm
21:24 20.1 °C 8.4 °C 1021.5 hPa SSO 6.9 km/h 11.1 km/h 47% 0.0 mm
21:29 19.9 °C 8.2 °C 1021.5 hPa SSO 6.5 km/h 11.3 km/h 46.9% 0.0 mm
21:34 19.8 °C 8.1 °C 1021.8 hPa SSO 5.8 km/h 13 km/h 46.6% 0.0 mm
21:39 19.8 °C 8.1 °C 1021.8 hPa SO 6 km/h 12.9 km/h 47% 0.0 mm
21:44 19.7 °C 8 °C 1021.8 hPa SO 6.5 km/h 11.9 km/h 47% 0.0 mm
21:49 19.5 °C 8.1 °C 1022.1 hPa SO 6.5 km/h 13 km/h 47.8% 0.0 mm
21:54 19.3 °C 8.1 °C 1022.1 hPa SO 6.5 km/h 19 km/h 48.3% 0.0 mm
21:59 19 °C 8.2 °C 1022.1 hPa SSO 8.1 km/h 19.3 km/h 49.7% 0.0 mm
22:04 18.8 °C 8.2 °C 1022.5 hPa SSO 10 km/h 19 km/h 50.2% 0.0 mm
22:09 18.7 °C 8.3 °C 1022.5 hPa SSO 10.7 km/h 25.9 km/h 51.1% 0.0 mm
22:14 18.4 °C 8.6 °C 1022.5 hPa Sur 11.9 km/h 25.7 km/h 52.6% 0.0 mm
22:19 18.3 °C 8.7 °C 1022.7 hPa Sur 12.5 km/h 24.1 km/h 53.7% 0.0 mm
22:24 18.2 °C 8.8 °C 1022.7 hPa SSO 13.7 km/h 19.3 km/h 54.6% 0.0 mm
22:29 18.1 °C 8.9 °C 1022.7 hPa Sur 12.4 km/h 19.3 km/h 55.2% 0.0 mm
22:34 17.9 °C 9 °C 1023.1 hPa SSO 10 km/h 16.7 km/h 56% 0.0 mm
22:39 17.8 °C 9.1 °C 1023.1 hPa SO 9.5 km/h 14.5 km/h 56.5% 0.0 mm
22:44 17.8 °C 9.2 °C 1023.1 hPa SSO 8.7 km/h 11.3 km/h 57% 0.0 mm
22:49 17.7 °C 9.1 °C 1023.1 hPa SSO 8 km/h 11.1 km/h 57% 0.0 mm
22:54 17.7 °C 9.3 °C 1023.1 hPa Sur 6.5 km/h 11.3 km/h 57.8% 0.0 mm
22:59 17.7 °C 9.3 °C 1023.1 hPa Sur 6.2 km/h 11.1 km/h 58% 0.0 mm
23:04 17.5 °C 9.3 °C 1023.3 hPa Sur 5.8 km/h 13 km/h 58.5% 0.0 mm
23:09 17.4 °C 9.3 °C 1023.3 hPa Sur 6.6 km/h 13 km/h 59% 0.0 mm
23:14 17.3 °C 9.2 °C 1023.3 hPa Sur 8.4 km/h 12.9 km/h 59.1% 0.0 mm
23:19 17.3 °C 9.4 °C 1023.5 hPa Sur 7.5 km/h 9.7 km/h 60% 0.0 mm
23:24 17.2 °C 9.4 °C 1023.5 hPa Sur 5.8 km/h 9.7 km/h 60% 0.0 mm
23:29 17.2 °C 9.4 °C 1023.5 hPa Sur 5.8 km/h 10.3 km/h 60.5% 0.0 mm
23:34 17.1 °C 9.5 °C 1023.7 hPa Sur 5.8 km/h 11.3 km/h 61% 0.0 mm
23:39 17 °C 9.4 °C 1023.7 hPa Sur 6 km/h 11.3 km/h 61% 0.0 mm
23:44 17 °C 9.6 °C 1023.7 hPa OSO 6.5 km/h 9.7 km/h 61.8% 0.0 mm
23:49 16.9 °C 9.5 °C 1023.9 hPa NNE 5.6 km/h 8 km/h 62% 0.0 mm
23:54 16.7 °C 9.5 °C 1023.9 hPa NE 3.9 km/h 8 km/h 62.6% 0.0 mm
23:59 16.5 °C 9.6 °C 1023.9 hPa NE 3.4 km/h 8 km/h 63.5% 0.0 mm
Murcia-Puente Tocinos, España
Compliments of Weather Underground - 3 mb

La estación de MeteoMurcia.com, publica sus datos en los siguientes proyectos:

Weather Underground PWS IMURCIAP2 Meteoclimatic www.awekas.at

W3Counter
Web Analytics